Time;durP1;ratioP1;P1;durP2;ratioP2;P2;SDS_P1;SDS_P2;PMS_P1;PMS_P2;Temp;Humidity;BMP_temperature;BMP_pressure;BME280_temperature;BME280_humidity;BME280_pressure;Samples;Min_cycle;Max_cycle;Signal;HPM_P1;HPM_P2
2021/09/13 00:01:06;;;;;;;5.97;4.70;;;;;;;;;;5072730;28;20229;-74
2021/09/13 00:03:34;;;;;;;5.83;4.20;;;;;;;;;;5073231;28;20313;-75
2021/09/13 00:06:01;;;;;;;6.00;4.97;;;;;;;;;;5073591;28;20290;-74
2021/09/13 00:08:29;;;;;;;6.13;4.90;;;;;;;;;;5073541;28;20290;-74
2021/09/13 00:10:57;;;;;;;5.77;4.50;;;;;;;;;;5057693;28;20688;-74
2021/09/13 00:13:24;;;;;;;6.10;4.40;;;;;;;;;;5070967;28;20626;-74
2021/09/13 00:15:51;;;;;;;8.47;4.90;;;;;;;;;;5057005;28;20215;-74
2021/09/13 00:18:18;;;;;;;6.90;4.77;;;;;;;;;;5062506;28;20294;-75
2021/09/13 00:20:46;;;;;;;7.13;5.37;;;;;;;;;;5055561;28;20286;-75
2021/09/13 00:23:13;;;;;;;5.40;4.67;;;;;;;;;;5064069;28;20225;-75
2021/09/13 00:25:41;;;;;;;7.43;4.97;;;;;;;;;;5056965;28;20276;-74
2021/09/13 00:28:09;;;;;;;6.97;4.87;;;;;;;;;;5072457;28;20277;-74
2021/09/13 00:30:36;;;;;;;7.40;5.20;;;;;;;;;;5071284;28;20302;-74
2021/09/13 00:33:03;;;;;;;7.77;5.03;;;;;;;;;;5071936;28;20705;-74
2021/09/13 00:35:31;;;;;;;7.00;4.90;;;;;;;;;;5072087;28;20238;-75
2021/09/13 00:37:58;;;;;;;6.57;5.27;;;;;;;;;;5052604;28;20191;-75
2021/09/13 00:40:26;;;;;;;7.13;5.00;;;;;;;;;;5061681;28;20286;-75
2021/09/13 00:42:54;;;;;;;7.43;5.43;;;;;;;;;;5061715;28;20745;-75
2021/09/13 00:45:21;;;;;;;8.07;5.00;;;;;;;;;;5068990;28;20299;-74
2021/09/13 00:47:49;;;;;;;6.47;5.17;;;;;;;;;;5053496;28;20291;-74
2021/09/13 00:50:16;;;;;;;6.10;4.87;;;;;;;;;;5054424;28;20227;-75
2021/09/13 00:52:49;;;;;;;6.10;5.17;;;;;;;;;;5063663;28;20294;-74
2021/09/13 00:55:16;;;;;;;8.27;5.60;;;;;;;;;;5057404;28;20285;-74
2021/09/13 00:57:43;;;;;;;10.37;5.77;;;;;;;;;;5057730;28;20288;-75
2021/09/13 01:00:13;;;;;;;8.13;5.50;;;;;;;;;;5063648;28;20195;-75
2021/09/13 01:02:40;;;;;;;7.43;5.83;;;;;;;;;;5055212;28;20318;-75
2021/09/13 01:05:08;;;;;;;7.47;6.03;;;;;;;;;;5060610;28;20619;-75
2021/09/13 01:07:36;;;;;;;8.20;6.03;;;;;;;;;;5060610;28;20234;-75
2021/09/13 01:10:04;;;;;;;10.37;6.10;;;;;;;;;;5060861;28;20294;-74
2021/09/13 01:12:31;;;;;;;7.33;6.10;;;;;;;;;;5060075;28;20202;-75
2021/09/13 01:14:58;;;;;;;8.50;5.73;;;;;;;;;;5065282;28;20328;-74
2021/09/13 01:17:27;;;;;;;7.13;5.80;;;;;;;;;;5061163;28;20286;-75
2021/09/13 01:19:54;;;;;;;7.53;5.53;;;;;;;;;;5057934;28;20219;-75
2021/09/13 01:22:21;;;;;;;8.33;6.20;;;;;;;;;;5066227;28;20332;-74
2021/09/13 01:24:50;;;;;;;7.70;6.50;;;;;;;;;;5052147;28;20289;-74
2021/09/13 01:27:17;;;;;;;8.97;6.60;;;;;;;;;;5047582;28;20286;-74
2021/09/13 01:29:45;;;;;;;7.20;5.83;;;;;;;;;;5059685;28;20282;-75
2021/09/13 01:32:12;;;;;;;8.53;6.10;;;;;;;;;;5067048;28;20844;-74
2021/09/13 01:34:39;;;;;;;7.80;6.17;;;;;;;;;;5059742;28;20302;-75
2021/09/13 01:37:07;;;;;;;8.53;5.87;;;;;;;;;;5060658;28;20290;-73
2021/09/13 01:39:34;;;;;;;8.60;6.30;;;;;;;;;;5067108;28;20302;-73
2021/09/13 01:42:02;;;;;;;9.00;6.20;;;;;;;;;;5054495;28;20287;-74
2021/09/13 01:44:29;;;;;;;7.43;6.50;;;;;;;;;;5066233;28;20274;-74
2021/09/13 01:46:57;;;;;;;7.43;6.00;;;;;;;;;;5061152;28;20289;-74
2021/09/13 01:49:24;;;;;;;8.97;5.93;;;;;;;;;;5058728;28;20247;-74
2021/09/13 01:51:51;;;;;;;8.23;6.47;;;;;;;;;;5052643;28;20282;-73
2021/09/13 01:54:18;;;;;;;7.87;6.10;;;;;;;;;;5056168;28;20595;-75
2021/09/13 01:56:46;;;;;;;9.93;6.70;;;;;;;;;;5071384;28;20285;-77
2021/09/13 01:59:14;;;;;;;7.47;6.23;;;;;;;;;;5071887;28;20298;-76
2021/09/13 02:01:42;;;;;;;8.03;6.97;;;;;;;;;;5070262;28;20626;-73
2021/09/13 02:04:10;;;;;;;8.43;6.37;;;;;;;;;;5042329;28;20196;-77
2021/09/13 02:06:37;;;;;;;7.47;6.30;;;;;;;;;;5031716;28;20192;-76
2021/09/13 02:09:04;;;;;;;8.87;6.47;;;;;;;;;;5031373;28;20288;-76
2021/09/13 02:11:31;;;;;;;10.10;7.00;;;;;;;;;;5031055;28;20291;-76
2021/09/13 02:13:59;;;;;;;11.57;7.10;;;;;;;;;;5036611;28;20296;-76
2021/09/13 02:16:27;;;;;;;8.50;6.93;;;;;;;;;;5045177;28;20279;-75
2021/09/13 02:18:54;;;;;;;10.40;7.10;;;;;;;;;;5035371;28;20231;-76
2021/09/13 02:21:21;;;;;;;7.83;7.03;;;;;;;;;;5039744;28;20232;-76
2021/09/13 02:23:49;;;;;;;11.37;7.03;;;;;;;;;;5031305;28;20295;-75
2021/09/13 02:26:16;;;;;;;9.73;7.20;;;;;;;;;;5030511;28;20287;-76
2021/09/13 02:28:43;;;;;;;10.37;7.83;;;;;;;;;;5031712;28;20287;-76
2021/09/13 02:31:10;;;;;;;9.17;7.50;;;;;;;;;;5034349;28;20196;-75
2021/09/13 02:33:39;;;;;;;11.57;7.67;;;;;;;;;;5050936;28;20774;-76
2021/09/13 02:36:06;;;;;;;8.80;7.43;;;;;;;;;;5042344;28;20199;-76
2021/09/13 02:38:33;;;;;;;8.73;7.57;;;;;;;;;;5035103;28;20291;-76
2021/09/13 02:41:00;;;;;;;9.77;7.67;;;;;;;;;;5031457;28;20286;-76
2021/09/13 02:43:28;;;;;;;9.93;7.43;;;;;;;;;;5041045;28;20293;-76
2021/09/13 02:45:55;;;;;;;9.23;7.33;;;;;;;;;;5045881;28;20202;-73
2021/09/13 02:48:22;;;;;;;9.57;7.07;;;;;;;;;;5045946;28;20230;-76
2021/09/13 02:50:51;;;;;;;8.67;7.77;;;;;;;;;;5037799;28;20291;-75
2021/09/13 02:53:18;;;;;;;8.10;7.30;;;;;;;;;;5042334;28;20304;-76
2021/09/13 02:55:45;;;;;;;9.00;6.93;;;;;;;;;;5039230;28;20207;-76
2021/09/13 02:58:13;;;;;;;9.57;7.20;;;;;;;;;;5046152;28;20683;-76
2021/09/13 03:00:40;;;;;;;8.90;7.20;;;;;;;;;;5049690;28;20204;-75
2021/09/13 03:03:07;;;;;;;8.80;7.83;;;;;;;;;;5056195;28;20314;-76
2021/09/13 03:05:34;;;;;;;10.33;6.93;;;;;;;;;;5061184;28;20285;-74
2021/09/13 03:08:03;;;;;;;9.23;7.27;;;;;;;;;;5057454;28;20223;-73
2021/09/13 03:10:30;;;;;;;8.63;7.73;;;;;;;;;;5067521;28;20286;-77
2021/09/13 03:12:57;;;;;;;9.00;7.67;;;;;;;;;;5056630;28;20230;-75
2021/09/13 03:15:25;;;;;;;11.83;8.37;;;;;;;;;;5073150;28;20250;-75
2021/09/13 03:17:52;;;;;;;9.10;8.00;;;;;;;;;;5062552;28;20282;-75
2021/09/13 03:20:19;;;;;;;9.13;8.07;;;;;;;;;;5070560;28;20290;-75
2021/09/13 03:22:46;;;;;;;9.43;8.33;;;;;;;;;;5057802;28;20290;-76
2021/09/13 03:25:15;;;;;;;9.60;7.63;;;;;;;;;;5068041;28;20191;-77
2021/09/13 03:27:42;;;;;;;10.23;8.30;;;;;;;;;;5058931;28;20225;-76
2021/09/13 03:30:10;;;;;;;11.70;8.07;;;;;;;;;;5060519;28;20287;-76
2021/09/13 03:32:38;;;;;;;9.57;7.83;;;;;;;;;;5039116;28;20806;-76
2021/09/13 03:35:05;;;;;;;9.60;7.93;;;;;;;;;;5069761;28;20344;-76
2021/09/13 03:37:32;;;;;;;10.80;8.10;;;;;;;;;;5062209;28;20620;-76
2021/09/13 03:39:59;;;;;;;11.87;8.90;;;;;;;;;;5066376;28;20778;-76
2021/09/13 03:42:28;;;;;;;10.73;8.30;;;;;;;;;;5058606;28;20287;-76
2021/09/13 03:44:55;;;;;;;10.50;8.20;;;;;;;;;;5070510;28;20283;-76
2021/09/13 03:47:23;;;;;;;9.23;8.20;;;;;;;;;;5060722;28;20286;-76
2021/09/13 03:49:50;;;;;;;9.23;8.20;;;;;;;;;;5058804;28;20735;-76
2021/09/13 03:52:17;;;;;;;10.53;8.40;;;;;;;;;;5067542;28;20298;-75
2021/09/13 03:54:45;;;;;;;9.37;7.97;;;;;;;;;;5073026;28;20475;-76
2021/09/13 03:57:12;;;;;;;12.60;8.40;;;;;;;;;;5073802;28;20227;-76
2021/09/13 03:59:40;;;;;;;10.33;8.40;;;;;;;;;;5073769;28;20278;-76
2021/09/13 04:02:07;;;;;;;10.30;7.93;;;;;;;;;;5061289;28;20694;-76
2021/09/13 04:04:35;;;;;;;10.17;8.40;;;;;;;;;;5069564;28;20231;-75
2021/09/13 04:07:13;;;;;;;9.77;8.47;;;;;;;;;;5056371;28;20200;-75
2021/09/13 04:09:48;;;;;;;9.73;7.77;;;;;;;;;;5062639;28;20203;-76
2021/09/13 04:12:16;;;;;;;9.70;8.37;;;;;;;;;;5057910;28;20199;-75
2021/09/13 04:14:44;;;;;;;10.27;8.23;;;;;;;;;;5058987;28;20306;-76
2021/09/13 04:17:11;;;;;;;9.37;8.13;;;;;;;;;;5064905;28;20218;-75
2021/09/13 04:19:38;;;;;;;12.57;8.50;;;;;;;;;;5065216;28;20311;-76
2021/09/13 04:22:06;;;;;;;9.57;8.57;;;;;;;;;;5063203;28;20289;-75
2021/09/13 04:24:33;;;;;;;9.33;8.33;;;;;;;;;;5064764;28;20201;-76
2021/09/13 04:27:00;;;;;;;11.00;8.40;;;;;;;;;;5063528;28;20286;-76
2021/09/13 04:29:27;;;;;;;10.07;8.43;;;;;;;;;;5055893;28;20283;-76
2021/09/13 04:31:56;;;;;;;9.80;7.97;;;;;;;;;;5060934;28;20294;-76
2021/09/13 04:34:23;;;;;;;8.87;7.97;;;;;;;;;;5053298;28;20255;-75
2021/09/13 04:36:50;;;;;;;9.90;8.40;;;;;;;;;;5068383;28;20757;-76
2021/09/13 04:39:17;;;;;;;9.70;8.53;;;;;;;;;;5056092;28;20654;-75
2021/09/13 04:41:45;;;;;;;10.70;8.63;;;;;;;;;;5066818;28;20322;-75
2021/09/13 04:44:12;;;;;;;9.50;8.50;;;;;;;;;;5062518;28;20205;-75
2021/09/13 04:46:39;;;;;;;9.77;8.47;;;;;;;;;;5059568;28;20286;-75
2021/09/13 04:49:08;;;;;;;10.03;8.60;;;;;;;;;;5069186;28;20226;-78
2021/09/13 04:51:36;;;;;;;11.37;8.47;;;;;;;;;;5066319;28;20640;-76
2021/09/13 04:54:04;;;;;;;10.87;8.30;;;;;;;;;;5072079;28;20219;-77
2021/09/13 04:56:31;;;;;;;10.10;8.10;;;;;;;;;;5069039;28;20286;-76
2021/09/13 04:58:59;;;;;;;9.23;8.13;;;;;;;;;;5056708;28;20298;-76
2021/09/13 05:01:26;;;;;;;9.50;8.43;;;;;;;;;;5062811;28;20199;-76
2021/09/13 05:03:53;;;;;;;9.00;8.10;;;;;;;;;;5062642;28;20321;-76
2021/09/13 05:06:22;;;;;;;9.83;8.83;;;;;;;;;;5061114;28;20234;-76
2021/09/13 05:08:49;;;;;;;10.03;9.00;;;;;;;;;;5064811;28;20286;-76
2021/09/13 05:11:16;;;;;;;10.17;8.53;;;;;;;;;;5070863;28;20298;-76
2021/09/13 05:13:43;;;;;;;11.17;8.90;;;;;;;;;;5070013;28;21013;-76
2021/09/13 05:16:11;;;;;;;12.03;9.27;;;;;;;;;;5079338;28;20340;-76
2021/09/13 05:18:38;;;;;;;10.70;9.30;;;;;;;;;;5072143;28;20290;-76
2021/09/13 05:21:05;;;;;;;11.37;9.30;;;;;;;;;;5071019;28;20747;-76
2021/09/13 05:23:34;;;;;;;10.50;9.40;;;;;;;;;;5075274;28;20288;-76
2021/09/13 05:26:01;;;;;;;10.47;9.30;;;;;;;;;;5085906;28;20212;-76
2021/09/13 05:28:28;;;;;;;10.53;9.27;;;;;;;;;;5072220;28;20286;-76
2021/09/13 05:30:56;;;;;;;10.97;9.47;;;;;;;;;;5070811;28;20238;-76
2021/09/13 05:33:23;;;;;;;12.33;9.33;;;;;;;;;;5071529;28;20223;-77
2021/09/13 05:35:50;;;;;;;11.90;9.63;;;;;;;;;;5051340;28;20306;-76
2021/09/13 05:38:18;;;;;;;10.60;9.33;;;;;;;;;;5056958;28;20211;-76
2021/09/13 05:40:47;;;;;;;10.87;9.77;;;;;;;;;;5067715;28;20203;-76
2021/09/13 05:43:14;;;;;;;12.30;9.63;;;;;;;;;;5068449;28;20230;-76
2021/09/13 05:45:41;;;;;;;13.17;9.60;;;;;;;;;;5071128;28;20246;-75
2021/09/13 05:48:08;;;;;;;11.27;9.63;;;;;;;;;;5070391;28;20705;-75
2021/09/13 05:50:35;;;;;;;11.90;9.23;;;;;;;;;;5070574;28;20290;-76
2021/09/13 05:53:02;;;;;;;12.90;9.23;;;;;;;;;;5072191;28;20210;-77
2021/09/13 05:55:30;;;;;;;10.43;9.30;;;;;;;;;;5071495;28;20261;-75
2021/09/13 05:57:58;;;;;;;9.87;8.83;;;;;;;;;;5071562;28;20272;-76
2021/09/13 06:00:26;;;;;;;12.13;9.83;;;;;;;;;;5070900;28;20209;-75
2021/09/13 06:02:53;;;;;;;10.47;9.37;;;;;;;;;;5070015;28;20325;-76
2021/09/13 06:05:20;;;;;;;12.73;10.30;;;;;;;;;;5070455;28;20282;-75
2021/09/13 06:07:47;;;;;;;9.80;8.83;;;;;;;;;;5070089;28;20281;-75
2021/09/13 06:10:14;;;;;;;11.83;9.67;;;;;;;;;;5057264;28;20236;-76
2021/09/13 06:12:42;;;;;;;12.20;9.00;;;;;;;;;;5050512;28;20295;-76
2021/09/13 06:15:12;;;;;;;11.43;9.20;;;;;;;;;;5051462;28;20314;-76
2021/09/13 06:17:39;;;;;;;13.43;9.33;;;;;;;;;;5054330;28;20286;-76
2021/09/13 06:20:07;;;;;;;13.80;9.23;;;;;;;;;;5066595;28;20286;-76
2021/09/13 06:22:34;;;;;;;11.83;8.63;;;;;;;;;;5059509;28;20638;-75
2021/09/13 06:25:02;;;;;;;11.17;8.67;;;;;;;;;;5051061;28;20298;-75
2021/09/13 06:27:29;;;;;;;11.53;8.20;;;;;;;;;;5070862;28;20297;-75
2021/09/13 06:29:56;;;;;;;10.27;8.70;;;;;;;;;;5071338;28;20285;-75
2021/09/13 06:32:25;;;;;;;8.83;7.93;;;;;;;;;;5071368;28;20290;-76
2021/09/13 06:34:52;;;;;;;9.23;8.33;;;;;;;;;;5071339;28;20310;-75
2021/09/13 06:37:22;;;;;;;8.60;7.77;;;;;;;;;;5071124;28;20663;-76
2021/09/13 06:39:50;;;;;;;8.93;7.57;;;;;;;;;;5053278;28;20216;-75
2021/09/13 06:42:17;;;;;;;8.70;7.80;;;;;;;;;;5051295;28;20208;-76
2021/09/13 06:44:47;;;;;;;8.00;7.10;;;;;;;;;;5063391;28;20213;-75
2021/09/13 06:47:23;;;;;;;11.03;7.10;;;;;;;;;;5072738;28;20195;-76
2021/09/13 06:49:52;;;;;;;8.03;6.97;;;;;;;;;;5074917;28;20205;-76
2021/09/13 06:52:19;;;;;;;8.67;7.17;;;;;;;;;;5055354;28;20594;-76
2021/09/13 06:54:46;;;;;;;8.87;7.40;;;;;;;;;;5056607;28;20303;-76
2021/09/13 06:57:13;;;;;;;8.03;6.70;;;;;;;;;;5063445;28;20302;-75
2021/09/13 06:59:42;;;;;;;8.97;6.43;;;;;;;;;;5075412;28;20297;-77
2021/09/13 07:02:09;;;;;;;6.83;6.07;;;;;;;;;;5074416;28;20330;-76
2021/09/13 07:04:36;;;;;;;7.23;6.53;;;;;;;;;;5075200;28;20209;-75
2021/09/13 07:07:05;;;;;;;8.50;5.77;;;;;;;;;;5064891;28;20291;-76
2021/09/13 07:09:32;;;;;;;6.37;5.43;;;;;;;;;;5062539;28;20287;-76
2021/09/13 07:11:59;;;;;;;6.82;5.70;;;;;;;;;;5054569;28;20235;-75
2021/09/13 07:14:27;;;;;;;6.57;5.70;;;;;;;;;;5054659;28;20286;-76
2021/09/13 07:16:54;;;;;;;7.03;6.30;;;;;;;;;;5064806;28;20290;-76
2021/09/13 07:19:21;;;;;;;6.60;5.90;;;;;;;;;;5071953;28;20208;-75
2021/09/13 07:21:48;;;;;;;6.97;5.53;;;;;;;;;;5054776;28;20668;-75
2021/09/13 07:24:20;;;;;;;5.95;5.20;;;;;;;;;;5054668;28;20668;-75
2021/09/13 07:26:47;;;;;;;5.90;4.60;;;;;;;;;;5055678;28;20568;-75
2021/09/13 07:29:15;;;;;;;5.13;4.63;;;;;;;;;;5074834;28;20289;-75
2021/09/13 07:31:42;;;;;;;4.60;4.20;;;;;;;;;;5074483;28;20206;-75
2021/09/13 07:34:09;;;;;;;5.10;3.58;;;;;;;;;;5074471;28;20295;-76
2021/09/13 07:36:36;;;;;;;4.63;3.58;;;;;;;;;;5074730;28;20310;-75
2021/09/13 07:39:04;;;;;;;8.00;3.92;;;;;;;;;;5062675;28;20239;-75
2021/09/13 07:41:33;;;;;;;4.82;4.03;;;;;;;;;;5054613;28;20203;-75
2021/09/13 07:44:00;;;;;;;5.60;3.85;;;;;;;;;;5054185;28;20231;-75
2021/09/13 07:46:27;;;;;;;5.15;4.05;;;;;;;;;;5054123;28;20710;-75
2021/09/13 07:48:54;;;;;;;5.82;3.78;;;;;;;;;;5054087;28;20676;-75
2021/09/13 07:51:22;;;;;;;5.43;3.50;;;;;;;;;;5071404;28;20226;-75
2021/09/13 07:53:50;;;;;;;3.85;3.45;;;;;;;;;;5073843;28;20654;-75
2021/09/13 07:56:17;;;;;;;5.57;3.40;;;;;;;;;;5073709;28;20310;-76
2021/09/13 07:58:45;;;;;;;3.95;3.33;;;;;;;;;;5072938;28;20288;-75
2021/09/13 08:01:13;;;;;;;4.55;3.65;;;;;;;;;;5073879;28;20286;-75
2021/09/13 08:03:40;;;;;;;5.88;3.30;;;;;;;;;;5073812;28;20294;-75
2021/09/13 08:06:08;;;;;;;7.07;3.67;;;;;;;;;;5065552;28;20635;-75
2021/09/13 08:08:35;;;;;;;4.93;3.75;;;;;;;;;;5053572;28;20195;-76
2021/09/13 08:11:02;;;;;;;4.80;3.53;;;;;;;;;;5054182;28;20591;-75
2021/09/13 08:13:29;;;;;;;4.53;3.80;;;;;;;;;;5053546;28;20239;-75
2021/09/13 08:15:58;;;;;;;6.20;3.45;;;;;;;;;;5053830;28;20394;-75
2021/09/13 08:18:25;;;;;;;5.95;3.38;;;;;;;;;;5053653;28;20231;-75
2021/09/13 08:20:52;;;;;;;7.57;3.50;;;;;;;;;;5053875;28;20286;-75
2021/09/13 08:23:19;;;;;;;6.20;3.83;;;;;;;;;;5069545;28;20282;-75
2021/09/13 08:25:47;;;;;;;4.60;3.38;;;;;;;;;;5073419;28;20729;-75
2021/09/13 08:28:19;;;;;;;4.68;3.05;;;;;;;;;;5073100;28;20289;-75
2021/09/13 08:30:46;;;;;;;5.13;3.05;;;;;;;;;;5073117;28;20207;-75
2021/09/13 08:33:15;;;;;;;6.93;3.25;;;;;;;;;;5073786;28;20207;-75
2021/09/13 08:35:42;;;;;;;4.63;3.13;;;;;;;;;;5073233;28;20663;-75
2021/09/13 08:38:09;;;;;;;5.22;3.00;;;;;;;;;;5073128;28;20289;-75
2021/09/13 08:40:37;;;;;;;4.15;3.42;;;;;;;;;;5073136;28;20291;-75
2021/09/13 08:43:04;;;;;;;4.60;2.80;;;;;;;;;;5073054;28;20291;-75
2021/09/13 08:45:37;;;;;;;6.07;2.88;;;;;;;;;;5071793;28;20282;-76
2021/09/13 08:48:10;;;;;;;6.32;2.90;;;;;;;;;;5073145;28;20577;-75
2021/09/13 08:50:53;;;;;;;4.20;3.33;;;;;;;;;;5072887;28;20191;-76
2021/09/13 08:53:22;;;;;;;7.57;2.90;;;;;;;;;;5072737;28;20644;-75
2021/09/13 08:55:51;;;;;;;5.70;3.20;;;;;;;;;;5073221;28;20254;-76
2021/09/13 08:58:22;;;;;;;4.80;2.95;;;;;;;;;;5072625;28;20656;-75
2021/09/13 09:00:49;;;;;;;4.65;3.17;;;;;;;;;;5071708;28;20286;-75
2021/09/13 09:03:17;;;;;;;4.32;3.40;;;;;;;;;;5072488;28;20722;-75
2021/09/13 09:05:46;;;;;;;3.30;2.97;;;;;;;;;;5071218;28;20227;-76
2021/09/13 09:08:25;;;;;;;5.82;3.60;;;;;;;;;;5072663;28;20290;-75
2021/09/13 09:10:53;;;;;;;5.00;3.03;;;;;;;;;;5071754;28;20659;-76
2021/09/13 09:13:20;;;;;;;6.18;3.20;;;;;;;;;;5072386;28;20206;-76
2021/09/13 09:15:54;;;;;;;4.88;2.88;;;;;;;;;;5066342;28;20250;-76
2021/09/13 09:18:23;;;;;;;6.78;3.15;;;;;;;;;;5070419;28;20282;-76
2021/09/13 09:20:52;;;;;;;6.55;3.22;;;;;;;;;;5072370;28;20199;-76
2021/09/13 09:23:19;;;;;;;5.55;3.03;;;;;;;;;;5072730;28;20299;-76
2021/09/13 09:25:47;;;;;;;4.75;2.72;;;;;;;;;;5071987;28;20235;-76
2021/09/13 09:28:16;;;;;;;4.15;3.10;;;;;;;;;;5072329;28;20522;-76
2021/09/13 09:30:45;;;;;;;5.40;2.65;;;;;;;;;;5072242;28;20205;-76
2021/09/13 09:33:13;;;;;;;6.03;3.00;;;;;;;;;;5071416;28;20219;-76
2021/09/13 09:35:41;;;;;;;7.63;3.10;;;;;;;;;;5071043;28;20277;-76
2021/09/13 09:38:09;;;;;;;4.68;2.90;;;;;;;;;;5075786;28;20257;-76
2021/09/13 09:40:36;;;;;;;3.47;2.95;;;;;;;;;;5091995;28;20285;-77
2021/09/13 09:43:05;;;;;;;5.63;2.75;;;;;;;;;;5092450;28;20611;-76
2021/09/13 09:45:32;;;;;;;7.95;3.15;;;;;;;;;;5078883;28;20684;-76
2021/09/13 09:48:06;;;;;;;4.28;3.03;;;;;;;;;;5071316;28;20614;-77
2021/09/13 09:50:34;;;;;;;4.75;3.20;;;;;;;;;;5071550;28;20602;-77
2021/09/13 09:53:16;;;;;;;4.82;3.25;;;;;;;;;;5071316;28;20191;-76
2021/09/13 09:55:44;;;;;;;4.35;2.90;;;;;;;;;;5071095;28;20715;-77
2021/09/13 09:58:13;;;;;;;3.08;2.70;;;;;;;;;;5071975;28;20725;-77
2021/09/13 10:00:41;;;;;;;5.63;2.97;;;;;;;;;;5071836;28;20203;-77
2021/09/13 10:03:08;;;;;;;5.25;3.20;;;;;;;;;;5071720;28;20413;-77
2021/09/13 10:05:36;;;;;;;3.72;2.97;;;;;;;;;;5052436;28;20288;-77
2021/09/13 10:08:04;;;;;;;3.92;2.90;;;;;;;;;;5068653;28;20302;-76
2021/09/13 10:10:33;;;;;;;4.40;3.10;;;;;;;;;;5071788;28;20280;-77
2021/09/13 10:13:01;;;;;;;4.53;2.58;;;;;;;;;;5071892;28;20283;-77
2021/09/13 10:15:29;;;;;;;4.60;2.58;;;;;;;;;;5071899;28;20230;-77
2021/09/13 10:17:56;;;;;;;3.42;2.92;;;;;;;;;;5071184;28;20195;-77
2021/09/13 10:20:24;;;;;;;5.70;3.10;;;;;;;;;;5063658;28;20237;-77
2021/09/13 10:22:52;;;;;;;5.57;3.03;;;;;;;;;;5070531;28;20210;-77
2021/09/13 10:25:20;;;;;;;4.18;2.92;;;;;;;;;;5071135;28;20199;-77
2021/09/13 10:27:49;;;;;;;4.43;2.75;;;;;;;;;;5071476;28;20226;-77
2021/09/13 10:30:18;;;;;;;8.70;2.95;;;;;;;;;;5071619;28;20678;-77
2021/09/13 10:32:45;;;;;;;5.13;2.60;;;;;;;;;;5071293;28;20641;-77
2021/09/13 10:35:13;;;;;;;6.78;3.17;;;;;;;;;;5071711;28;20290;-77
2021/09/13 10:37:41;;;;;;;3.67;2.75;;;;;;;;;;5071378;28;20309;-77
2021/09/13 10:40:09;;;;;;;6.57;3.15;;;;;;;;;;5051019;28;20624;-77
2021/09/13 10:42:37;;;;;;;6.57;3.13;;;;;;;;;;5051668;28;20290;-77
2021/09/13 10:45:19;;;;;;;3.67;2.72;;;;;;;;;;5051254;28;20286;-77
2021/09/13 10:47:49;;;;;;;5.78;3.00;;;;;;;;;;5048504;28;20192;-77
2021/09/13 10:50:17;;;;;;;4.43;2.70;;;;;;;;;;5051490;28;20235;-77
2021/09/13 10:52:45;;;;;;;5.18;2.78;;;;;;;;;;5051125;28;20211;-77
2021/09/13 10:55:26;;;;;;;5.60;3.20;;;;;;;;;;5051296;28;20642;-77
2021/09/13 10:57:54;;;;;;;6.05;2.78;;;;;;;;;;5051161;28;20315;-77
2021/09/13 11:00:36;;;;;;;3.80;2.53;;;;;;;;;;5051374;28;20287;-77
2021/09/13 11:03:22;;;;;;;7.03;2.78;;;;;;;;;;5049785;28;20267;-77
2021/09/13 11:06:02;;;;;;;4.15;2.50;;;;;;;;;;5051271;28;20302;-77
2021/09/13 11:08:29;;;;;;;4.38;2.58;;;;;;;;;;5051186;28;20203;-77
2021/09/13 11:10:57;;;;;;;4.80;2.90;;;;;;;;;;5051033;28;20298;-77
2021/09/13 11:13:24;;;;;;;5.80;2.90;;;;;;;;;;5051402;28;20192;-76
2021/09/13 11:15:52;;;;;;;6.10;2.90;;;;;;;;;;5051085;28;20619;-77
2021/09/13 11:18:31;;;;;;;5.00;2.60;;;;;;;;;;5051183;28;20258;-77
2021/09/13 11:21:14;;;;;;;4.97;2.63;;;;;;;;;;5051143;28;20206;-77
2021/09/13 11:23:43;;;;;;;6.05;2.90;;;;;;;;;;5050729;28;20514;-77
2021/09/13 11:26:10;;;;;;;7.05;2.95;;;;;;;;;;5068758;28;20689;-77
2021/09/13 11:28:52;;;;;;;4.30;2.90;;;;;;;;;;5070888;28;20195;-77
2021/09/13 11:31:30;;;;;;;3.92;2.65;;;;;;;;;;5070614;28;20244;-77
2021/09/13 11:33:58;;;;;;;4.97;2.70;;;;;;;;;;5071882;28;20286;-77
2021/09/13 11:36:26;;;;;;;4.95;2.67;;;;;;;;;;5065272;28;20219;-77
2021/09/13 11:38:58;;;;;;;5.05;2.70;;;;;;;;;;5074517;28;20297;-77
2021/09/13 11:41:25;;;;;;;4.43;2.85;;;;;;;;;;5094956;28;20608;-77
2021/09/13 11:44:03;;;;;;;4.07;2.80;;;;;;;;;;5094663;28;20229;-77
2021/09/13 11:46:31;;;;;;;4.32;2.90;;;;;;;;;;5094610;28;20198;-77
2021/09/13 11:49:17;;;;;;;3.85;2.60;;;;;;;;;;5094686;28;20194;-77
2021/09/13 11:52:04;;;;;;;5.25;2.72;;;;;;;;;;5094511;28;20280;-77
2021/09/13 11:54:33;;;;;;;2.70;2.50;;;;;;;;;;5094652;28;20230;-77
2021/09/13 11:57:00;;;;;;;2.90;2.40;;;;;;;;;;5094349;28;20313;-78
2021/09/13 11:59:27;;;;;;;3.30;2.30;;;;;;;;;;5071283;28;20286;-77
2021/09/13 12:01:58;;;;;;;3.53;2.42;;;;;;;;;;5053521;28;20314;-77
2021/09/13 12:04:27;;;;;;;2.80;2.50;;;;;;;;;;5053945;28;20239;-77
2021/09/13 12:07:05;;;;;;;2.40;2.20;;;;;;;;;;5054021;28;20235;-77
2021/09/13 12:09:34;;;;;;;3.70;2.20;;;;;;;;;;5053998;28;20235;-77
2021/09/13 12:12:02;;;;;;;4.15;2.47;;;;;;;;;;5054136;28;20207;-77
2021/09/13 12:14:29;;;;;;;2.55;2.35;;;;;;;;;;5053855;28;20290;-77
2021/09/13 12:17:08;;;;;;;3.47;2.38;;;;;;;;;;5053603;28;20219;-77
2021/09/13 12:19:35;;;;;;;3.97;2.20;;;;;;;;;;5053406;28;20210;-77
2021/09/13 12:22:03;;;;;;;3.65;2.20;;;;;;;;;;5060027;28;20726;-77
2021/09/13 12:24:30;;;;;;;3.50;2.42;;;;;;;;;;5073559;28;20199;-77
2021/09/13 12:26:59;;;;;;;2.85;2.50;;;;;;;;;;5073804;28;20230;-77
2021/09/13 12:29:26;;;;;;;2.47;2.28;;;;;;;;;;5073040;28;20762;-77
2021/09/13 12:31:53;;;;;;;3.47;2.38;;;;;;;;;;5073477;28;20294;-77
2021/09/13 12:34:21;;;;;;;2.40;2.20;;;;;;;;;;5072895;28;20822;-77
2021/09/13 12:36:48;;;;;;;4.00;2.58;;;;;;;;;;5072657;28;20726;-77
2021/09/13 12:39:15;;;;;;;2.92;2.38;;;;;;;;;;5056766;28;20243;-77
2021/09/13 12:41:43;;;;;;;3.20;2.35;;;;;;;;;;5053584;28;20238;-77
2021/09/13 12:44:15;;;;;;;2.50;2.28;;;;;;;;;;5053288;28;20204;-77
2021/09/13 12:46:47;;;;;;;2.42;2.22;;;;;;;;;;5053094;28;20221;-77
2021/09/13 12:49:14;;;;;;;2.47;2.25;;;;;;;;;;5052709;28;20287;-77
2021/09/13 12:51:41;;;;;;;2.97;2.20;;;;;;;;;;5053179;28;20247;-77
2021/09/13 12:54:10;;;;;;;3.85;2.53;;;;;;;;;;5059820;28;20302;-77
2021/09/13 12:56:43;;;;;;;2.40;2.03;;;;;;;;;;5072864;28;20244;-77
2021/09/13 12:59:11;;;;;;;2.60;2.40;;;;;;;;;;5073065;28;20286;-77
2021/09/13 13:01:41;;;;;;;2.45;2.25;;;;;;;;;;5072600;28;20578;-77
2021/09/13 13:04:09;;;;;;;3.08;2.33;;;;;;;;;;5072455;28;20234;-77
2021/09/13 13:06:37;;;;;;;2.40;2.08;;;;;;;;;;5072640;28;20231;-76
2021/09/13 13:09:04;;;;;;;2.58;2.10;;;;;;;;;;5071973;28;20201;-76
2021/09/13 13:11:32;;;;;;;3.00;2.42;;;;;;;;;;5071834;28;20207;-75
2021/09/13 13:13:59;;;;;;;2.17;1.98;;;;;;;;;;5072723;28;20849;-76
2021/09/13 13:16:36;;;;;;;2.50;2.30;;;;;;;;;;5052545;28;20238;-76
2021/09/13 13:19:05;;;;;;;3.53;2.60;;;;;;;;;;5052283;28;20299;-76
2021/09/13 13:21:33;;;;;;;3.53;2.45;;;;;;;;;;5052369;28;20290;-76
2021/09/13 13:24:00;;;;;;;3.05;2.00;;;;;;;;;;5052633;28;20286;-76
2021/09/13 13:26:27;;;;;;;3.38;2.30;;;;;;;;;;5052386;28;20290;-76
2021/09/13 13:28:54;;;;;;;2.60;2.40;;;;;;;;;;5051901;28;20291;-76
2021/09/13 13:31:21;;;;;;;2.85;2.10;;;;;;;;;;5052373;28;20292;-76
2021/09/13 13:33:49;;;;;;;2.47;2.28;;;;;;;;;;5051966;28;20251;-76
2021/09/13 13:36:17;;;;;;;3.53;2.40;;;;;;;;;;5052517;28;20231;-76
2021/09/13 13:38:44;;;;;;;2.53;2.15;;;;;;;;;;5069569;28;20233;-76
2021/09/13 13:41:12;;;;;;;2.53;2.20;;;;;;;;;;5092457;28;20749;-76
2021/09/13 13:43:39;;;;;;;2.40;2.20;;;;;;;;;;5069940;28;20195;-78
2021/09/13 13:46:06;;;;;;;2.83;2.33;;;;;;;;;;5069066;28;20192;-76
2021/09/13 13:48:33;;;;;;;2.75;2.03;;;;;;;;;;5064986;28;20282;-76
2021/09/13 13:51:01;;;;;;;2.38;2.13;;;;;;;;;;5062432;28;20222;-76
2021/09/13 13:53:30;;;;;;;3.72;2.17;;;;;;;;;;5063477;28;20207;-77
2021/09/13 13:55:58;;;;;;;2.80;2.15;;;;;;;;;;5065412;28;20290;-76
2021/09/13 13:58:25;;;;;;;3.10;2.28;;;;;;;;;;5059351;28;20216;-76
2021/09/13 14:00:53;;;;;;;3.45;2.50;;;;;;;;;;5059531;28;20290;-76
2021/09/13 14:03:20;;;;;;;3.20;2.10;;;;;;;;;;5070081;28;20288;-76
2021/09/13 14:05:48;;;;;;;2.30;2.10;;;;;;;;;;5063235;28;20667;-76
2021/09/13 14:08:15;;;;;;;2.15;1.80;;;;;;;;;;5070851;28;20203;-76
2021/09/13 14:10:43;;;;;;;3.85;2.28;;;;;;;;;;5063308;28;20670;-76
2021/09/13 14:13:11;;;;;;;2.33;2.13;;;;;;;;;;5061517;28;20282;-76
2021/09/13 14:15:38;;;;;;;2.65;2.10;;;;;;;;;;5070546;28;20191;-76
2021/09/13 14:18:06;;;;;;;2.38;2.17;;;;;;;;;;5051985;28;20311;-77
2021/09/13 14:20:33;;;;;;;4.00;2.40;;;;;;;;;;5055625;28;20282;-76
2021/09/13 14:23:00;;;;;;;2.70;2.20;;;;;;;;;;5051583;28;20214;-76
2021/09/13 14:25:27;;;;;;;3.35;2.20;;;;;;;;;;5058554;28;20294;-76
2021/09/13 14:27:56;;;;;;;2.80;2.20;;;;;;;;;;5071042;28;20286;-76
2021/09/13 14:30:23;;;;;;;2.35;2.13;;;;;;;;;;5068236;28;20295;-76
2021/09/13 14:32:50;;;;;;;2.22;2.00;;;;;;;;;;5062949;28;20282;-76
2021/09/13 14:35:17;;;;;;;3.30;2.10;;;;;;;;;;5051309;28;20664;-76
2021/09/13 14:37:45;;;;;;;2.63;2.13;;;;;;;;;;5063890;28;20315;-76
2021/09/13 14:40:12;;;;;;;4.53;3.50;;;;;;;;;;5056694;28;20290;-76
2021/09/13 14:42:42;;;;;;;2.35;2.15;;;;;;;;;;5067183;28;20227;-77
2021/09/13 14:45:11;;;;;;;2.50;2.30;;;;;;;;;;5069101;28;20195;-76
2021/09/13 14:47:39;;;;;;;2.60;2.22;;;;;;;;;;5064519;28;20194;-77